Time;durP1;ratioP1;P1;durP2;ratioP2;P2;SDS_P1;SDS_P2;PMS_P1;PMS_P2;Temp;Humidity;BMP_temperature;BMP_pressure;BME280_temperature;BME280_humidity;BME280_pressure;Samples;Min_cycle;Max_cycle;Signal;HPM_P1;HPM_P2
2022/09/20 00:01:07;;;;;;;;;;;;;;;23.08;49.19;100820.00;7407550;19;1516;-57
2022/09/20 00:03:39;;;;;;;;;;;;;;;23.09;49.32;100814.47;7406378;19;1538;-56
2022/09/20 00:06:08;;;;;;;;;;;;;;;23.10;49.37;100820.69;7409164;19;1616;-56
2022/09/20 00:08:37;;;;;;;;;;;;;;;23.09;49.25;100827.09;7407319;19;1845;-56
2022/09/20 00:11:06;;;;;;;;;;;;;;;23.06;49.01;100827.41;7406661;19;1381;-56
2022/09/20 00:13:35;;;;;;;;;;;;;;;23.05;49.32;100806.88;7409318;19;1537;-56
2022/09/20 00:16:06;;;;;;;;;;;;;;;23.05;49.52;100825.75;7408043;19;1629;-56
2022/09/20 00:18:34;;;;;;;;;;;;;;;23.06;49.46;100822.03;7409272;19;1561;-56
2022/09/20 00:21:06;;;;;;;;;;;;;;;23.03;49.39;100818.66;7409674;19;1533;-56
2022/09/20 00:23:35;;;;;;;;;;;;;;;23.03;49.46;100818.66;7409717;19;1557;-56
2022/09/20 00:26:06;;;;;;;;;;;;;;;23.03;49.35;100810.56;7408034;19;1970;-56
2022/09/20 00:28:34;;;;;;;;;;;;;;;23.09;49.46;100832.50;7407391;19;1861;-56
2022/09/20 00:31:03;;;;;;;;;;;;;;;23.05;49.31;100806.88;7407884;19;1558;-57
2022/09/20 00:36:15;;;;;;;;;;;;;;;23.00;49.65;100805.47;7405716;19;880;-56
2022/09/20 00:38:43;;;;;;;;;;;;;;;23.03;49.33;100810.56;7404949;19;1681;-56
2022/09/20 00:41:12;;;;;;;;;;;;;;;23.04;49.25;100819.50;7406861;19;1556;-56
2022/09/20 00:43:41;;;;;;;;;;;;;;;23.02;49.50;100813.44;7405199;19;1896;-56
2022/09/20 00:46:19;;;;;;;;;;;;;;;23.03;49.29;100818.66;7408078;19;1529;-56
2022/09/20 00:48:48;;;;;;;;;;;;;;;23.03;49.66;100826.72;7407326;19;1846;-56
2022/09/20 00:51:23;;;;;;;;;;;;;;;22.98;49.62;100812.03;7408568;19;1506;-56
2022/09/20 00:53:52;;;;;;;;;;;;;;;23.03;49.86;100826.72;7406402;19;1441;-56
2022/09/20 00:56:22;;;;;;;;;;;;;;;23.01;49.43;100820.63;7406263;19;1621;-71
2022/09/20 00:58:53;;;;;;;;;;;;;;;22.96;49.60;100809.50;7405608;19;1601;-71
2022/09/20 01:01:21;;;;;;;;;;;;;;;22.97;49.64;100808.47;7403886;19;1526;-70
2022/09/20 01:03:50;;;;;;;;;;;;;;;23.02;49.47;100797.25;7407195;19;1597;-71
2022/09/20 01:06:21;;;;;;;;;;;;;;;22.97;49.27;100811.16;7406143;19;1537;-56
2022/09/20 01:08:52;;;;;;;;;;;;;;;22.98;49.45;100796.69;7405740;19;1852;-56
2022/09/20 01:11:20;;;;;;;;;;;;;;;23.00;49.35;100796.53;7405977;19;1537;-56
2022/09/20 01:13:49;;;;;;;;;;;;;;;22.98;49.55;100779.66;7406863;19;1728;-56
2022/09/20 01:16:18;;;;;;;;;;;;;;;22.96;49.58;100787.06;7405536;19;1542;-56
2022/09/20 01:18:47;;;;;;;;;;;;;;;22.95;49.85;100775.41;7407486;19;1546;-70
2022/09/20 01:21:16;;;;;;;;;;;;;;;22.95;49.58;100764.63;7407960;19;1636;-71
2022/09/20 01:23:53;;;;;;;;;;;;;;;22.96;49.50;100771.75;7406881;19;1550;-71
2022/09/20 01:26:38;;;;;;;;;;;;;;;22.94;49.39;100762.09;7406189;19;1502;-56
2022/09/20 01:29:14;;;;;;;;;;;;;;;22.91;49.54;100757.88;7406471;19;1848;-56
2022/09/20 01:31:46;;;;;;;;;;;;;;;22.95;49.33;100767.34;7406717;19;1584;-56
2022/09/20 01:34:15;;;;;;;;;;;;;;;22.97;49.46;100777.97;7406510;19;1529;-56
2022/09/20 01:36:45;;;;;;;;;;;;;;;22.94;49.38;100773.75;7406775;19;939;-56
2022/09/20 01:39:19;;;;;;;;;;;;;;;22.93;49.79;100768.50;7405588;19;1712;-70
2022/09/20 01:41:50;;;;;;;;;;;;;;;22.93;49.62;100769.34;7405980;19;1518;-71
2022/09/20 01:44:24;;;;;;;;;;;;;;;22.90;49.57;100777.78;7406334;19;1397;-71
2022/09/20 01:46:59;;;;;;;;;;;;;;;22.92;49.38;100773.06;7405750;19;1635;-70
2022/09/20 01:49:32;;;;;;;;;;;;;;;22.93;49.45;100777.44;7405046;19;1864;-71
2022/09/20 01:52:14;;;;;;;;;;;;;;;22.93;49.52;100782.84;7406394;19;960;-71
2022/09/20 01:54:56;;;;;;;;;;;;;;;22.91;49.66;100774.06;7405742;19;1641;-56
2022/09/20 01:57:46;;;;;;;;;;;;;;;22.94;49.31;100781.84;7407122;19;1575;-55
2022/09/20 02:00:20;;;;;;;;;;;;;;;22.90;49.40;100780.47;7403724;19;1763;-55
2022/09/20 02:03:08;;;;;;;;;;;;;;;22.93;49.61;100787.38;7394282;19;1597;-56
2022/09/20 02:05:44;;;;;;;;;;;;;;;22.89;49.55;100778.78;7406395;19;1482;-56
2022/09/20 02:08:25;;;;;;;;;;;;;;;22.92;49.75;100786.56;7405469;19;1289;-56
2022/09/20 02:11:08;;;;;;;;;;;;;;;22.90;49.54;100776.91;7403242;19;1834;-56
2022/09/20 02:13:44;;;;;;;;;;;;;;;22.90;49.34;100769.69;7401548;19;1298;-56
2022/09/20 02:16:23;;;;;;;;;;;;;;;22.92;49.43;100791.06;7404671;19;1445;-56
2022/09/20 02:19:08;;;;;;;;;;;;;;;22.90;49.54;100777.78;7403595;19;1330;-56
2022/09/20 02:21:39;;;;;;;;;;;;;;;22.90;49.68;100780.47;7403765;19;1381;-56
2022/09/20 02:24:18;;;;;;;;;;;;;;;22.90;49.44;100785.88;7402731;19;1558;-56
2022/09/20 02:26:52;;;;;;;;;;;;;;;22.93;49.55;100790.91;7403961;19;1445;-56
2022/09/20 02:29:27;;;;;;;;;;;;;;;22.97;49.70;100802.25;7402206;19;1878;-56
2022/09/20 02:32:13;;;;;;;;;;;;;;;22.92;49.39;100781.16;7404144;19;1378;-56
2022/09/20 02:34:53;;;;;;;;;;;;;;;22.93;49.61;100790.91;7403676;19;1319;-56
2022/09/20 02:37:34;;;;;;;;;;;;;;;22.90;49.44;100793.94;7403382;19;1259;-56
2022/09/20 02:40:11;;;;;;;;;;;;;;;22.92;49.37;100796.47;7402411;19;1280;-55
2022/09/20 02:42:43;;;;;;;;;;;;;;;22.92;49.34;100791.94;7404836;19;1282;-56
2022/09/20 02:45:17;;;;;;;;;;;;;;;22.90;49.56;100793.09;7402412;19;1329;-56
2022/09/20 02:47:46;;;;;;;;;;;;;;;22.90;49.30;100793.94;7404188;19;1279;-56
2022/09/20 02:50:26;;;;;;;;;;;;;;;22.92;49.40;100797.34;7402264;19;1876;-56
2022/09/20 02:53:02;;;;;;;;;;;;;;;22.91;49.18;100802.88;7401991;19;1523;-56
2022/09/20 02:55:37;;;;;;;;;;;;;;;22.92;49.47;100796.47;7400360;19;1355;-56
2022/09/20 02:58:12;;;;;;;;;;;;;;;22.91;49.53;100798.31;7403541;19;1357;-56
2022/09/20 03:00:46;;;;;;;;;;;;;;;22.87;49.40;100796.97;7401695;19;1328;-56
2022/09/20 03:03:19;;;;;;;;;;;;;;;22.92;49.49;100804.56;7399710;19;1465;-56
2022/09/20 03:05:54;;;;;;;;;;;;;;;22.86;49.42;100797.97;7402185;19;1461;-56
2022/09/20 03:08:30;;;;;;;;;;;;;;;22.86;49.39;100792.59;7402638;19;1480;-56
2022/09/20 03:11:05;;;;;;;;;;;;;;;22.85;49.20;100790.88;7401064;19;1853;-56
2022/09/20 03:13:40;;;;;;;;;;;;;;;22.89;49.57;100802.19;7400671;19;1432;-70
2022/09/20 03:16:14;;;;;;;;;;;;;;;22.86;49.50;100784.50;7400231;19;1190;-70
2022/09/20 03:18:49;;;;;;;;;;;;;;;22.84;49.44;100798.13;7401914;19;1444;-70
2022/09/20 03:21:26;;;;;;;;;;;;;;;22.87;49.20;100794.25;7401999;19;1351;-70
2022/09/20 03:24:00;;;;;;;;;;;;;;;22.89;49.18;100799.50;7400809;19;1688;-71
2022/09/20 03:26:33;;;;;;;;;;;;;;;22.86;49.42;100799.81;7401437;19;1781;-70
2022/09/20 03:29:05;;;;;;;;;;;;;;;22.87;49.24;100793.44;7401177;19;1400;-71
2022/09/20 03:31:48;;;;;;;;;;;;;;;22.87;49.26;100801.50;7403462;19;1853;-71
2022/09/20 03:34:22;;;;;;;;;;;;;;;22.84;49.48;100795.44;7409105;19;1446;-70
2022/09/20 03:37:01;;;;;;;;;;;;;;;22.86;49.32;100794.41;7406963;19;1376;-69
2022/09/20 03:39:45;;;;;;;;;;;;;;;22.84;49.57;100800.00;7407965;19;1579;-70
2022/09/20 03:42:16;;;;;;;;;;;;;;;22.84;49.49;100800.00;7409580;19;1628;-70
2022/09/20 03:44:52;;;;;;;;;;;;;;;22.88;49.22;100806.75;7408406;19;1340;-69
2022/09/20 03:47:27;;;;;;;;;;;;;;;22.86;49.34;100810.59;7406373;19;1283;-69
2022/09/20 03:50:22;;;;;;;;;;;;;;;22.82;49.39;100802.84;7408248;19;1862;-70
2022/09/20 03:53:02;;;;;;;;;;;;;;;22.81;49.06;100794.91;7405337;19;1976;-70
2022/09/20 03:55:44;;;;;;;;;;;;;;;22.82;49.45;100799.31;7409748;19;1365;-70
2022/09/20 03:58:19;;;;;;;;;;;;;;;22.84;49.27;100802.69;7407703;19;1207;-70
2022/09/20 04:00:53;;;;;;;;;;;;;;;22.85;49.29;100812.44;7407022;19;1429;-70
2022/09/20 04:03:26;;;;;;;;;;;;;;;22.87;49.17;100810.44;7400173;19;1959;-69
2022/09/20 04:06:01;;;;;;;;;;;;;;;22.90;49.14;100807.44;7404786;19;1234;-70
2022/09/20 04:08:40;;;;;;;;;;;;;;;22.84;49.20;100808.09;7406122;19;1297;-69
2022/09/20 04:11:15;;;;;;;;;;;;;;;22.84;49.44;100808.09;7407181;19;1834;-69
2022/09/20 04:13:49;;;;;;;;;;;;;;;22.82;49.33;100810.94;7407593;19;1774;-65
2022/09/20 04:16:27;;;;;;;;;;;;;;;22.86;49.33;100814.16;7407495;19;1440;-70
2022/09/20 04:18:58;;;;;;;;;;;;;;;22.85;49.65;100831.31;7407060;19;1410;-67
2022/09/20 04:21:30;;;;;;;;;;;;;;;22.84;49.66;100821.56;7406562;19;1342;-57
2022/09/20 04:24:04;;;;;;;;;;;;;;;22.86;49.49;100833.03;7406778;19;1229;-57
2022/09/20 04:26:34;;;;;;;;;;;;;;;22.87;49.34;100833.88;7408432;19;1300;-58
2022/09/20 04:29:07;;;;;;;;;;;;;;;22.86;49.30;100824.94;7408126;19;1628;-57
2022/09/20 04:31:40;;;;;;;;;;;;;;;22.85;49.63;100823.25;7405411;19;1851;-58
2022/09/20 04:34:13;;;;;;;;;;;;;;;22.89;49.67;100832.69;7405160;19;1219;-57
2022/09/20 04:36:54;;;;;;;;;;;;;;;22.90;49.63;100830.84;7402078;19;1338;-59
2022/09/20 04:39:29;;;;;;;;;;;;;;;22.96;49.84;100836.47;7406834;19;1484;-56
2022/09/20 04:42:21;;;;;;;;;;;;;;;22.96;50.05;100838.28;7407621;19;1345;-56
2022/09/20 04:45:16;;;;;;;;;;;;;;;22.98;50.02;100839.84;7405192;19;1984;-70
2022/09/20 04:47:57;;;;;;;;;;;;;;;23.15;51.17;100848.88;7407854;19;1724;-66
2022/09/20 04:50:37;;;;;;;;;;;;;;;23.15;50.11;100845.34;7408311;19;1840;-67
2022/09/20 04:53:26;;;;;;;;;;;;;;;23.05;49.95;100844.63;7407839;19;1764;-68
2022/09/20 04:56:02;;;;;;;;;;;;;;;23.03;50.49;100855.56;7406360;19;1786;-74
2022/09/20 04:58:41;;;;;;;;;;;;;;;22.97;48.91;100845.38;7401917;19;1716;-57
2022/09/20 05:01:24;;;;;;;;;;;;;;;22.94;48.14;100859.19;7403387;19;1433;-56
2022/09/20 05:04:05;;;;;;;;;;;;;;;22.98;48.62;100841.69;7404750;19;1544;-66
2022/09/20 05:06:42;;;;;;;;;;;;;;;22.98;47.17;100855.19;7405955;19;1420;-58
2022/09/20 05:09:25;;;;;;;;;;;;;;;22.95;47.12;100850.94;7406408;19;1744;-57
2022/09/20 05:12:13;;;;;;;;;;;;;;;22.99;48.22;100859.56;7405914;19;1850;-59
2022/09/20 05:14:52;;;;;;;;;;;;;;;23.03;47.39;100853.72;7405709;19;1608;-71
2022/09/20 05:17:27;;;;;;;;;;;;;;;23.01;47.29;100849.44;7405737;19;1565;-71
2022/09/20 05:20:06;;;;;;;;;;;;;;;23.07;47.64;100864.19;7404791;19;1343;-56
2022/09/20 05:22:49;;;;;;;;;;;;;;;23.09;46.50;100862.19;7404758;19;1300;-57
2022/09/20 05:25:41;;;;;;;;;;;;;;;23.12;47.37;100894.22;7404427;19;1612;-59
2022/09/20 05:28:15;;;;;;;;;;;;;;;23.05;47.48;100866.19;7405144;19;1350;-71
2022/09/20 05:30:47;;;;;;;;;;;;;;;23.07;46.66;100874.97;7402383;19;1856;-71
2022/09/20 05:33:20;;;;;;;;;;;;;;;23.07;46.83;100870.41;7404646;19;1509;-72
2022/09/20 05:35:55;;;;;;;;;;;;;;;23.03;47.12;100869.88;7404126;19;1402;-57
2022/09/20 05:38:28;;;;;;;;;;;;;;;23.00;46.49;100883.69;7404035;19;1361;-57
2022/09/20 05:41:07;;;;;;;;;;;;;;;23.01;47.18;100892.59;7405015;19;1438;-56
2022/09/20 05:43:41;;;;;;;;;;;;;;;22.98;48.17;100899.16;7404211;19;1190;-57
2022/09/20 05:46:16;;;;;;;;;;;;;;;22.97;47.85;100892.06;7403647;19;1360;-57
2022/09/20 05:48:53;;;;;;;;;;;;;;;21.59;46.49;100900.53;7403527;19;1258;-57
2022/09/20 05:51:29;;;;;;;;;;;;;;;22.24;46.74;100895.88;7400341;19;1861;-57
2022/09/20 05:54:20;;;;;;;;;;;;;;;22.46;47.48;100888.31;7401749;19;1385;-57
2022/09/20 05:56:53;;;;;;;;;;;;;;;22.69;47.08;100893.22;7405688;19;1384;-57
2022/09/20 05:59:32;;;;;;;;;;;;;;;22.77;46.95;100906.78;7401725;19;2218;-57
2022/09/20 06:02:05;;;;;;;;;;;;;;;22.83;46.61;100904.28;7403779;19;1636;-57
2022/09/20 06:04:40;;;;;;;;;;;;;;;22.88;46.51;100890.34;7404993;19;1362;-57
2022/09/20 06:07:13;;;;;;;;;;;;;;;22.92;46.27;100894.41;7405380;19;1389;-57
2022/09/20 06:09:52;;;;;;;;;;;;;;;23.00;46.15;100907.94;7405498;19;1601;-57
2022/09/20 06:12:30;;;;;;;;;;;;;;;22.94;46.05;100895.09;7403744;19;1850;-56
2022/09/20 06:15:06;;;;;;;;;;;;;;;22.97;45.91;100897.47;7405295;19;1768;-57
2022/09/20 06:17:38;;;;;;;;;;;;;;;23.00;45.65;100896.31;7405015;19;1697;-56
2022/09/20 06:20:12;;;;;;;;;;;;;;;23.00;45.63;100907.94;7404866;19;1693;-56
2022/09/20 06:22:43;;;;;;;;;;;;;;;22.97;45.54;100919.03;7405932;19;1553;-56
2022/09/20 06:25:19;;;;;;;;;;;;;;;22.93;45.67;100916.81;7405111;19;1526;-57
2022/09/20 06:27:52;;;;;;;;;;;;;;;22.93;45.47;100914.13;7405286;19;1588;-56
2022/09/20 06:30:25;;;;;;;;;;;;;;;22.90;45.24;100915.31;7400897;19;1858;-57
2022/09/20 06:32:57;;;;;;;;;;;;;;;22.89;45.11;100921.69;7404370;19;1560;-57
2022/09/20 06:35:29;;;;;;;;;;;;;;;22.85;45.25;100933.78;7403583;19;1072;-56
2022/09/20 06:43:41;;;;;;;;;;;;;;;22.87;45.33;100923.69;7398746;19;2230;-56
2022/09/20 06:46:14;;;;;;;;;;;;;;;22.87;45.30;100923.69;7403958;19;1385;-57
2022/09/20 06:48:42;;;;;;;;;;;;;;;22.89;45.00;100921.69;7400895;19;1452;-56
2022/09/20 06:51:11;;;;;;;;;;;;;;;22.97;45.35;100929.81;7401329;19;1852;-57
2022/09/20 06:53:41;;;;;;;;;;;;;;;22.92;45.13;100929.47;7402529;19;1342;-57
2022/09/20 06:56:13;;;;;;;;;;;;;;;22.93;45.02;100928.44;7403740;19;1398;-56
2022/09/20 06:58:42;;;;;;;;;;;;;;;22.91;44.77;100929.63;7402998;19;1340;-56
2022/09/20 07:01:12;;;;;;;;;;;;;;;22.87;44.71;100933.63;7401935;19;1378;-57
2022/09/20 07:03:41;;;;;;;;;;;;;;;22.92;44.40;100937.56;7403685;19;1451;-57
2022/09/20 07:06:10;;;;;;;;;;;;;;;22.86;44.70;100932.81;7405623;19;1381;-56
2022/09/20 07:08:38;;;;;;;;;;;;;;;22.90;44.35;100933.31;7409726;19;1332;-56
2022/09/20 07:11:08;;;;;;;;;;;;;;;22.90;44.24;100941.41;7409262;19;1854;-57
2022/09/20 07:13:36;;;;;;;;;;;;;;;22.91;44.56;100933.16;7410139;19;1381;-56
2022/09/20 07:16:06;;;;;;;;;;;;;;;22.91;44.41;100926.94;7410573;19;1374;-57
2022/09/20 07:18:36;;;;;;;;;;;;;;;22.94;44.32;100956.25;7410621;19;1665;-56
2022/09/20 07:21:05;;;;;;;;;;;;;;;22.94;44.36;100946.34;7410551;19;1381;-57
2022/09/20 07:23:33;;;;;;;;;;;;;;;22.92;44.24;100942.97;7410410;19;1398;-57
2022/09/20 07:26:01;;;;;;;;;;;;;;;22.95;44.07;100942.63;7410841;19;1314;-57
2022/09/20 07:28:30;;;;;;;;;;;;;;;22.95;44.03;100934.53;7410848;19;1367;-56
2022/09/20 07:30:59;;;;;;;;;;;;;;;22.94;43.92;100940.06;7409019;19;1842;-57
2022/09/20 07:33:27;;;;;;;;;;;;;;;22.94;43.69;100949.03;7409499;19;1608;-56
2022/09/20 07:35:58;;;;;;;;;;;;;;;22.96;43.66;100936.25;7410536;19;1531;-57
2022/09/20 07:38:27;;;;;;;;;;;;;;;22.96;43.85;100938.94;7410429;19;1661;-57
2022/09/20 07:40:59;;;;;;;;;;;;;;;22.99;43.63;100940.47;7410489;19;1574;-57
2022/09/20 07:43:27;;;;;;;;;;;;;;;22.96;43.72;100936.25;7407649;19;1708;-57
2022/09/20 07:45:58;;;;;;;;;;;;;;;23.02;43.57;100938.34;7410632;19;1469;-57
2022/09/20 07:48:27;;;;;;;;;;;;;;;22.99;43.54;100938.59;7408923;19;1279;-56
2022/09/20 07:50:59;;;;;;;;;;;;;;;23.03;43.82;100942.72;7409053;19;1854;-57
2022/09/20 07:53:27;;;;;;;;;;;;;;;23.06;43.56;100938.88;7407215;19;1295;-57
2022/09/20 07:55:59;;;;;;;;;;;;;;;23.05;43.62;100936.31;7409192;19;1374;-56
2022/09/20 07:58:27;;;;;;;;;;;;;;;22.98;43.29;100928.84;7409611;19;1359;-57
2022/09/20 08:00:56;;;;;;;;;;;;;;;22.93;43.41;100928.44;7408949;19;1365;-57
2022/09/20 08:03:25;;;;;;;;;;;;;;;22.98;43.32;100938.78;7406382;19;1469;-57
2022/09/20 08:05:54;;;;;;;;;;;;;;;22.98;43.08;100934.22;7409164;19;1529;-57
2022/09/20 08:08:25;;;;;;;;;;;;;;;22.89;43.07;100916.28;7407756;19;1239;-56
2022/09/20 08:10:54;;;;;;;;;;;;;;;22.99;43.00;100940.47;7410022;19;1856;-56
2022/09/20 08:13:22;;;;;;;;;;;;;;;23.05;43.16;100937.16;7407576;19;1304;-56
2022/09/20 08:15:51;;;;;;;;;;;;;;;23.09;43.13;100935.00;7408521;19;1431;-57
2022/09/20 08:18:20;;;;;;;;;;;;;;;23.07;42.93;100934.31;7406418;19;1346;-57
2022/09/20 08:20:48;;;;;;;;;;;;;;;23.07;42.82;100934.31;7408693;19;1377;-57
2022/09/20 08:23:16;;;;;;;;;;;;;;;23.09;42.95;100916.97;7407375;19;1367;-57
2022/09/20 08:25:48;;;;;;;;;;;;;;;23.05;42.77;100922.84;7409059;19;1370;-57
2022/09/20 08:28:16;;;;;;;;;;;;;;;23.06;42.69;100933.47;7408087;19;1319;-56
2022/09/20 08:30:45;;;;;;;;;;;;;;;23.00;42.50;100918.75;7407647;19;1386;-57
2022/09/20 08:33:13;;;;;;;;;;;;;;;23.06;42.85;100913.72;7408682;19;1254;-57
2022/09/20 08:35:42;;;;;;;;;;;;;;;23.09;42.67;100910.72;7408023;19;1391;-57
2022/09/20 08:38:10;;;;;;;;;;;;;;;23.10;42.81;100928.59;7407556;19;1349;-57
2022/09/20 08:40:38;;;;;;;;;;;;;;;23.08;42.51;100927.91;7408922;19;1323;-56
2022/09/20 08:43:11;;;;;;;;;;;;;;;23.07;42.83;100912.75;7406739;19;1241;-57
2022/09/20 08:45:40;;;;;;;;;;;;;;;23.08;42.34;100903.63;7406681;19;1377;-57
2022/09/20 08:48:14;;;;;;;;;;;;;;;22.79;42.26;100894.81;7407264;19;1402;-55
2022/09/20 08:50:42;;;;;;;;;;;;;;;23.06;42.81;100916.44;7406302;19;1180;-57
2022/09/20 08:53:14;;;;;;;;;;;;;;;23.22;43.16;100908.47;7404645;19;1849;-57
2022/09/20 08:55:43;;;;;;;;;;;;;;;23.33;43.38;100891.97;7407413;19;1536;-57
2022/09/20 08:58:15;;;;;;;;;;;;;;;23.40;42.76;100887.63;7405852;19;1467;-57
2022/09/20 09:00:46;;;;;;;;;;;;;;;23.45;43.28;100908.72;7406218;19;1484;-57
2022/09/20 09:03:16;;;;;;;;;;;;;;;23.40;42.72;100887.63;7403416;19;1522;-56
2022/09/20 09:05:46;;;;;;;;;;;;;;;23.51;43.24;100875.69;7407651;19;1556;-66
2022/09/20 09:08:15;;;;;;;;;;;;;;;23.38;42.67;100884.25;7405549;19;1356;-62
2022/09/20 09:10:44;;;;;;;;;;;;;;;23.37;43.47;100877.16;7407526;19;1454;-60
2022/09/20 09:13:22;;;;;;;;;;;;;;;23.45;43.58;100889.00;7404734;19;1850;-59
2022/09/20 09:15:56;;;;;;;;;;;;;;;23.50;42.71;100878.56;7406891;19;1264;-59
2022/09/20 09:18:30;;;;;;;;;;;;;;;23.47;43.13;100860.81;7406963;19;1633;-66
2022/09/20 09:21:01;;;;;;;;;;;;;;;23.51;42.91;100864.06;7404509;19;1701;-58
2022/09/20 09:23:34;;;;;;;;;;;;;;;23.55;42.84;100868.13;7406439;19;1394;-62
2022/09/20 09:26:05;;;;;;;;;;;;;;;23.55;42.96;100860.00;7406890;19;1365;-57
2022/09/20 09:28:35;;;;;;;;;;;;;;;23.47;42.96;100860.81;7405624;19;1369;-60
2022/09/20 09:31:21;;;;;;;;;;;;;;;23.46;43.93;100863.69;7406300;19;1627;-54
2022/09/20 09:33:50;;;;;;;;;;;;;;;23.43;43.53;100852.19;7406717;19;1351;-57
2022/09/20 09:36:19;;;;;;;;;;;;;;;23.43;43.00;100848.66;7406078;19;1475;-56
2022/09/20 09:38:48;;;;;;;;;;;;;;;23.47;43.65;100852.72;7406015;19;1420;-58
2022/09/20 09:41:26;;;;;;;;;;;;;;;23.48;43.64;100856.28;7406458;19;1318;-59
2022/09/20 09:44:08;;;;;;;;;;;;;;;23.50;43.52;100843.47;7405826;19;1379;-58
2022/09/20 09:46:38;;;;;;;;;;;;;;;23.63;44.42;100839.31;7405652;19;1584;-59
2022/09/20 09:49:09;;;;;;;;;;;;;;;23.52;40.79;100834.22;7405636;19;1334;-57
2022/09/20 09:51:38;;;;;;;;;;;;;;;23.39;42.99;100837.34;7404657;19;1845;-57
2022/09/20 09:54:07;;;;;;;;;;;;;;;23.37;42.45;100838.53;7404144;19;1432;-57
2022/09/20 09:56:46;;;;;;;;;;;;;;;23.39;42.05;100847.31;7401118;19;1568;-57
2022/09/20 09:59:27;;;;;;;;;;;;;;;23.37;41.88;100836.66;7405613;19;1763;-56
2022/09/20 10:02:00;;;;;;;;;;;;;;;23.38;41.40;100830.28;7403077;19;1609;-56
2022/09/20 10:04:33;;;;;;;;;;;;;;;23.35;41.82;100837.84;7406494;19;1617;-56
2022/09/20 10:07:05;;;;;;;;;;;;;;;23.36;42.25;100829.59;7403284;19;1751;-58
2022/09/20 10:09:47;;;;;;;;;;;;;;;23.43;41.98;100833.31;7404614;19;1482;-58
2022/09/20 10:12:21;;;;;;;;;;;;;;;23.45;41.89;100837.72;7404950;19;1841;-56
2022/09/20 10:14:59;;;;;;;;;;;;;;;23.38;41.61;100835.66;7402845;19;1546;-67
2022/09/20 10:17:35;;;;;;;;;;;;;;;23.31;41.50;100825.69;7403726;19;1257;-65
2022/09/20 10:20:11;;;;;;;;;;;;;;;23.32;41.53;100830.94;7405453;19;1542;-64
2022/09/20 10:22:46;;;;;;;;;;;;;;;23.38;41.93;100832.97;7402016;19;1373;-56
2022/09/20 10:25:22;;;;;;;;;;;;;;;23.32;41.32;100830.94;7402025;19;1406;-56
2022/09/20 10:28:00;;;;;;;;;;;;;;;23.36;41.56;100835.00;7402230;19;1663;-56
2022/09/20 10:30:33;;;;;;;;;;;;;;;23.35;41.45;100827.06;7402424;19;1251;-56
2022/09/20 10:33:05;;;;;;;;;;;;;;;23.38;40.66;100824.88;7402145;19;1853;-56
2022/09/20 10:35:51;;;;;;;;;;;;;;;23.40;41.42;100833.66;7402566;19;1309;-56
2022/09/20 10:38:25;;;;;;;;;;;;;;;23.40;40.97;100824.72;7404666;19;1370;-56
2022/09/20 10:43:49;;;;;;;;;;;;;;;23.56;41.78;100827.47;7401547;19;1742;-56
2022/09/20 10:46:23;;;;;;;;;;;;;;;23.61;42.35;100826.97;7403252;19;1188;-56
2022/09/20 10:48:57;;;;;;;;;;;;;;;23.60;41.87;100817.19;7403962;19;1331;-55
2022/09/20 10:51:30;;;;;;;;;;;;;;;23.62;43.91;100825.97;7399092;19;1216;-61
2022/09/20 10:54:03;;;;;;;;;;;;;;;23.62;44.13;100825.97;7401285;19;1511;-60
2022/09/20 10:56:35;;;;;;;;;;;;;;;23.58;44.08;100824.59;7403640;19;1361;-60
2022/09/20 10:59:19;;;;;;;;;;;;;;;23.53;44.01;100811.59;7403363;19;1351;-60
2022/09/20 11:01:55;;;;;;;;;;;;;;;23.53;43.96;100805.34;7400356;19;1886;-61
2022/09/20 11:04:33;;;;;;;;;;;;;;;23.42;44.17;100804.66;7402303;19;1348;-61
2022/09/20 11:07:08;;;;;;;;;;;;;;;23.46;44.50;100805.19;7402216;19;1240;-62
2022/09/20 11:09:39;;;;;;;;;;;;;;;23.40;44.27;100800.44;7401778;19;1868;-61
2022/09/20 11:12:13;;;;;;;;;;;;;;;23.35;44.18;100791.97;7402325;19;1873;-61
2022/09/20 11:14:45;;;;;;;;;;;;;;;23.40;44.14;100816.63;7403243;19;1390;-61
2022/09/20 11:17:18;;;;;;;;;;;;;;;23.37;44.29;100801.59;7403455;19;1391;-66
2022/09/20 11:19:51;;;;;;;;;;;;;;;23.41;44.72;100796.72;7402497;19;1512;-64
2022/09/20 11:22:22;;;;;;;;;;;;;;;23.46;45.46;100807.00;7400484;19;1462;-66
2022/09/20 11:24:53;;;;;;;;;;;;;;;23.78;45.85;100793.63;7403404;19;1418;-65
2022/09/20 11:27:24;;;;;;;;;;;;;;;23.63;46.72;100796.13;7399422;19;1784;-65
2022/09/20 11:29:59;;;;;;;;;;;;;;;23.45;46.38;100787.28;7402209;19;1561;-63
2022/09/20 11:32:33;;;;;;;;;;;;;;;23.35;47.74;100792.81;7401351;19;1852;-63
2022/09/20 11:35:04;;;;;;;;;;;;;;;23.30;47.46;100791.59;7402309;19;1566;-59
2022/09/20 11:37:35;;;;;;;;;;;;;;;23.30;47.37;100795.16;7402175;19;1641;-64
2022/09/20 11:40:09;;;;;;;;;;;;;;;23.30;47.86;100787.06;7399652;19;1789;-63
2022/09/20 11:42:40;;;;;;;;;;;;;;;23.33;47.35;100789.44;7402022;19;1641;-63
2022/09/20 11:45:13;;;;;;;;;;;;;;;23.38;47.31;100792.50;7396125;19;1316;-56
2022/09/20 11:47:46;;;;;;;;;;;;;;;23.35;47.15;100775.78;7399281;19;1241;-55
2022/09/20 11:50:31;;;;;;;;;;;;;;;23.36;47.81;100785.59;7398030;19;1269;-55
2022/09/20 11:53:06;;;;;;;;;;;;;;;23.32;47.64;100779.66;7402929;19;1862;-67
2022/09/20 11:55:43;;;;;;;;;;;;;;;23.31;47.33;100772.56;7409863;19;1151;-65
2022/09/20 11:58:14;;;;;;;;;;;;;;;23.31;46.59;100777.97;7407781;19;1392;-56
2022/09/20 12:00:44;;;;;;;;;;;;;;;23.38;46.49;100757.41;7404177;19;1436;-64
2022/09/20 12:03:27;;;;;;;;;;;;;;;23.30;46.73;100773.59;7401131;19;1601;-64
2022/09/20 12:05:59;;;;;;;;;;;;;;;23.33;46.23;100772.41;7408456;19;1343;-64
2022/09/20 12:08:29;;;;;;;;;;;;;;;23.30;46.67;100768.19;7407390;19;1307;-64
2022/09/20 12:11:00;;;;;;;;;;;;;;;23.33;46.23;100770.53;7409393;19;1441;-65
2022/09/20 12:13:29;;;;;;;;;;;;;;;23.31;46.43;100775.25;7406450;19;1861;-65
2022/09/20 12:16:02;;;;;;;;;;;;;;;23.26;46.49;100772.22;7406523;19;1356;-65
2022/09/20 12:19:02;;;;;;;;;;;;;;;23.33;45.58;100775.94;7406651;19;1290;-65
2022/09/20 12:21:31;;;;;;;;;;;;;;;23.35;45.81;100776.63;7407055;19;1366;-55
2022/09/20 12:24:11;;;;;;;;;;;;;;;23.35;46.37;100768.53;7407584;19;1385;-65
2022/09/20 12:26:41;;;;;;;;;;;;;;;23.30;45.60;100762.78;7408923;19;1612;-65
2022/09/20 12:29:25;;;;;;;;;;;;;;;23.23;44.56;100762.59;7408532;19;1715;-54
2022/09/20 12:31:54;;;;;;;;;;;;;;;23.23;44.19;100767.13;7408273;19;1681;-55
2022/09/20 12:34:38;;;;;;;;;;;;;;;23.28;44.16;100777.44;7406784;19;1839;-55
2022/09/20 12:37:20;;;;;;;;;;;;;;;23.22;43.77;100763.59;7407023;19;1513;-56
2022/09/20 12:39:53;;;;;;;;;;;;;;;23.15;44.14;100754.47;7404361;19;1218;-55
2022/09/20 12:42:29;;;;;;;;;;;;;;;23.15;43.91;100764.41;7406215;19;1325;-56
2022/09/20 12:45:00;;;;;;;;;;;;;;;23.11;43.64;100763.88;7409501;19;1514;-56
2022/09/20 12:47:30;;;;;;;;;;;;;;;23.13;43.80;100766.44;7406993;19;1311;-56
2022/09/20 12:53:02;;;;;;;;;;;;;;;23.13;43.50;100755.66;7409059;19;1830;-56
2022/09/20 12:55:50;;;;;;;;;;;;;;;23.08;43.27;100757.97;7406917;19;1485;-56
2022/09/20 12:58:24;;;;;;;;;;;;;;;23.13;43.21;100755.66;7407293;19;1716;-56
2022/09/20 13:00:53;;;;;;;;;;;;;;;23.15;43.00;100748.22;7405098;19;1628;-64
2022/09/20 13:03:27;;;;;;;;;;;;;;;23.07;42.72;100756.31;7402327;19;1435;-56
2022/09/20 13:06:10;;;;;;;;;;;;;;;23.10;42.69;100756.81;7407742;19;1636;-64
2022/09/20 13:08:45;;;;;;;;;;;;;;;23.12;42.45;100749.41;7406205;19;2503;-64
2022/09/20 13:11:18;;;;;;;;;;;;;;;23.10;42.47;100743.34;7407941;19;1306;-64
2022/09/20 13:13:49;;;;;;;;;;;;;;;23.10;42.50;100750.56;7407290;19;1861;-64
2022/09/20 13:16:22;;;;;;;;;;;;;;;23.08;42.58;100750.75;7405226;19;1549;-64
2022/09/20 13:18:53;;;;;;;;;;;;;;;23.07;42.22;100756.31;7406419;19;1822;-64
2022/09/20 13:21:22;;;;;;;;;;;;;;;23.09;42.28;100752.41;7404888;19;1373;-64
2022/09/20 13:23:54;;;;;;;;;;;;;;;23.09;42.23;100762.38;7406730;19;1253;-64
2022/09/20 13:26:26;;;;;;;;;;;;;;;23.06;42.18;100741.09;7406974;19;1589;-64
2022/09/20 13:28:55;;;;;;;;;;;;;;;23.05;42.17;100742.13;7407302;19;1578;-56
2022/09/20 13:31:25;;;;;;;;;;;;;;;23.06;42.36;100746.50;7404156;19;1549;-55
2022/09/20 13:33:54;;;;;;;;;;;;;;;23.19;42.09;100750.44;7404095;19;1870;-56
2022/09/20 13:36:26;;;;;;;;;;;;;;;23.23;42.48;100756.34;7406255;19;1478;-56